Archival Weather

Westchester County

White Plains, New York (KHPN)

Report from: Friday, February 23, 2024 1:56 AM EST
Current time: Wednesday, May 29, 2024 8:12 PM EDT

Current weather – Weather history – Daily summaries
Weather forecast

Present weatherLight rain, mist
Temperature2.8°C (37.0°F)
Wind chill0.2°C (32.4°F)
Dew point2.2°C (36.0°F)
Winds 5 kts (2.6 m/s, 5.8 mph) East (80°)
Visibility1.8 mi. (2.8 km)
Clouds Ceiling: Overcast 200 ft. (61 m)
Altimeter29.61 in.Hg (1003 mB)
Precipitiation0.03 in. (1 mm)
Precip. events Unknown precipitation began 6:06 AM
Unknown precipitation ended 6:09 AM
Relative humidity96 %
Density altitude-1,038 ft. (-317 m)
Sea-level pressure100.3 kPa (1003 mB, 29.63 in.Hg)
Remarks Automated weather observing station with precipitation discriminator
Flight conditions Low Instrument Meteorological Conditions
Raw dataKHPN 230656Z 08005KT 1 3/4SM -RA BR OVC002 03/02 A2961 RMK AO2 UPB06E09 SLP034 P0003 T00280022
An error has occurred. This application may no longer respond until reloaded. Reload 🗙